createdAt,value
2022-08-07T00:01:44.394Z,4.20
2022-08-07T00:06:45.579Z,5.20
2022-08-07T00:09:22.253Z,4.60
2022-08-07T00:11:55.494Z,4.00
2022-08-07T00:14:31.286Z,5.70
2022-08-07T00:17:02.087Z,5.40
2022-08-07T00:20:00.463Z,3.40
2022-08-07T00:25:16.607Z,3.80
2022-08-07T00:27:53.696Z,4.50
2022-08-07T00:30:27.899Z,6.90
2022-08-07T00:32:58.567Z,4.80
2022-08-07T00:35:29.889Z,4.90
2022-08-07T00:38:00.322Z,3.80
2022-08-07T00:40:39.228Z,3.90
2022-08-07T00:43:59.782Z,4.90
2022-08-07T00:46:02.093Z,3.70
2022-08-07T00:48:32.378Z,4.60
2022-08-07T00:51:02.984Z,5.50
2022-08-07T00:53:38.836Z,3.40
2022-08-07T00:56:19.023Z,4.20
2022-08-07T00:58:49.738Z,3.90
2022-08-07T01:01:20.970Z,5.20
2022-08-07T01:03:55.803Z,5.70
2022-08-07T01:06:29.790Z,4.80
2022-08-07T01:09:00.982Z,4.40
2022-08-07T01:12:09.037Z,4.70
2022-08-07T01:14:28.285Z,3.70
2022-08-07T01:16:57.960Z,5.20
2022-08-07T01:19:32.189Z,4.40
2022-08-07T01:22:03.139Z,3.70
2022-08-07T01:24:32.707Z,4.10
2022-08-07T01:27:02.025Z,4.90
2022-08-07T01:29:33.938Z,3.40
2022-08-07T01:32:05.191Z,5.40
2022-08-07T01:34:35.337Z,3.40
2022-08-07T01:37:04.158Z,4.30
2022-08-07T01:39:41.154Z,3.20
2022-08-07T01:42:39.220Z,3.60
2022-08-07T01:48:20.615Z,4.30
2022-08-07T01:50:36.518Z,4.40
2022-08-07T01:53:08.535Z,4.50
2022-08-07T01:55:42.675Z,6.10
2022-08-07T01:58:27.437Z,4.80
2022-08-07T02:01:09.488Z,4.30
2022-08-07T02:04:01.585Z,4.10
2022-08-07T02:06:32.925Z,3.20
2022-08-07T02:09:08.312Z,4.30
2022-08-07T02:12:03.361Z,5.20
2022-08-07T02:14:40.752Z,4.20
2022-08-07T02:17:13.342Z,5.60
2022-08-07T02:20:05.628Z,4.40
2022-08-07T02:22:41.468Z,5.10
2022-08-07T02:25:18.181Z,3.70
2022-08-07T02:27:52.199Z,5.30
2022-08-07T02:30:22.495Z,5.00
2022-08-07T02:33:00.729Z,5.60
2022-08-07T02:36:30.302Z,4.70
2022-08-07T02:38:32.606Z,5.40
2022-08-07T02:41:04.009Z,4.40
2022-08-07T02:43:38.884Z,4.60
2022-08-07T02:46:11.388Z,5.70
2022-08-07T02:48:39.895Z,3.80
2022-08-07T02:51:41.854Z,5.30
2022-08-07T02:54:13.096Z,3.70
2022-08-07T02:56:42.675Z,5.40
2022-08-07T02:59:15.292Z,4.20
2022-08-07T03:01:47.202Z,5.20
2022-08-07T03:04:23.277Z,5.00
2022-08-07T03:06:53.743Z,7.10
2022-08-07T03:09:43.151Z,3.60
2022-08-07T03:12:22.336Z,5.70
2022-08-07T03:15:02.558Z,5.20
2022-08-07T03:17:52.975Z,4.10
2022-08-07T03:20:24.344Z,4.60
2022-08-07T03:22:57.018Z,5.50
2022-08-07T03:25:32.566Z,4.60
2022-08-07T03:28:37.573Z,7.20
2022-08-07T03:31:23.713Z,5.00
2022-08-07T03:33:59.880Z,5.60
2022-08-07T03:36:30.958Z,5.60
2022-08-07T03:39:06.668Z,3.50
2022-08-07T03:41:42.504Z,6.10
2022-08-07T03:44:16.701Z,5.00
2022-08-07T03:47:10.804Z,6.40
2022-08-07T03:49:39.922Z,5.20
2022-08-07T03:52:22.647Z,3.70
2022-08-07T03:55:06.712Z,4.50
2022-08-07T03:58:33.042Z,4.20
2022-08-07T04:00:29.312Z,4.40
2022-08-07T04:03:03.879Z,3.50
2022-08-07T04:05:40.578Z,4.50
2022-08-07T04:08:12.991Z,4.40
2022-08-07T04:10:54.865Z,4.60
2022-08-07T04:14:10.700Z,6.70
2022-08-07T04:16:30.372Z,5.30
2022-08-07T04:19:04.398Z,6.90
2022-08-07T04:21:47.982Z,6.50
2022-08-07T04:24:34.206Z,5.50
2022-08-07T04:27:15.164Z,6.80
2022-08-07T04:30:01.549Z,4.90
2022-08-07T04:32:34.662Z,5.80
2022-08-07T04:35:11.332Z,5.10
2022-08-07T04:38:03.503Z,3.70
2022-08-07T04:40:29.998Z,5.10
2022-08-07T04:43:01.663Z,5.40
2022-08-07T04:46:12.502Z,4.60
2022-08-07T04:49:17.787Z,5.50
2022-08-07T04:52:00.682Z,6.30
2022-08-07T04:54:35.458Z,5.40
2022-08-07T04:58:24.118Z,5.50
2022-08-07T05:00:36.865Z,5.40
2022-08-07T05:04:00.475Z,7.30
2022-08-07T05:06:28.076Z,5.00
2022-08-07T05:09:05.040Z,7.70
2022-08-07T05:11:57.422Z,6.80
2022-08-07T05:14:54.448Z,7.30
2022-08-07T05:17:52.638Z,7.40
2022-08-07T05:20:23.822Z,7.80
2022-08-07T05:22:55.203Z,7.20
2022-08-07T05:26:09.897Z,8.10
2022-08-07T05:28:20.221Z,7.00
2022-08-07T05:30:54.773Z,6.00
2022-08-07T05:33:27.584Z,7.40
2022-08-07T05:35:57.283Z,5.90
2022-08-07T05:38:59.484Z,6.50
2022-08-07T05:41:18.456Z,5.30
2022-08-07T05:44:11.913Z,5.40
2022-08-07T05:46:43.140Z,6.30
2022-08-07T05:49:14.675Z,4.50
2022-08-07T05:51:47.478Z,6.40
2022-08-07T05:54:31.233Z,5.50
2022-08-07T05:57:09.495Z,5.20
2022-08-07T05:59:57.290Z,6.50
2022-08-07T06:02:30.853Z,5.20
2022-08-07T06:05:15.702Z,4.90
2022-08-07T06:08:12.984Z,5.10
2022-08-07T06:10:34.069Z,4.90
2022-08-07T06:13:02.957Z,6.50
2022-08-07T06:15:39.460Z,5.70
2022-08-07T06:18:14.040Z,5.90
2022-08-07T06:20:51.165Z,6.60
2022-08-07T06:24:36.858Z,7.60
2022-08-07T06:26:27.526Z,4.70
2022-08-07T06:28:59.858Z,5.80
2022-08-07T06:31:46.821Z,6.20
2022-08-07T06:34:20.490Z,6.30
2022-08-07T06:36:52.230Z,9.70
2022-08-07T06:40:16.867Z,3.80
2022-08-07T06:42:33.203Z,5.20
2022-08-07T06:45:12.052Z,4.60
2022-08-07T06:47:48.083Z,5.70
2022-08-07T06:50:27.489Z,6.50
2022-08-07T06:53:04.330Z,4.00
2022-08-07T06:56:00.489Z,5.10
2022-08-07T06:58:27.468Z,4.10
2022-08-07T07:00:58.153Z,3.80
2022-08-07T07:03:47.913Z,5.20
2022-08-07T07:06:26.106Z,8.00
2022-08-07T07:08:55.197Z,3.70
2022-08-07T07:12:08.894Z,7.60
2022-08-07T07:14:18.475Z,7.50
2022-08-07T07:16:53.786Z,5.30
2022-08-07T07:19:56.403Z,4.00
2022-08-07T07:22:36.857Z,5.10
2022-08-07T07:26:31.696Z,6.90
2022-08-07T07:28:48.356Z,3.70
2022-08-07T07:31:39.976Z,5.00
2022-08-07T07:34:18.577Z,6.80
2022-08-07T07:36:53.839Z,4.00
2022-08-07T07:39:25.807Z,4.10
2022-08-07T07:42:19.914Z,3.00
2022-08-07T07:44:50.293Z,3.90
2022-08-07T07:47:23.816Z,4.30
2022-08-07T07:50:34.814Z,4.10
2022-08-07T07:52:47.127Z,1.90
2022-08-07T07:55:19.668Z,1.60
2022-08-07T07:57:53.618Z,4.80
2022-08-07T08:00:31.427Z,2.40
2022-08-07T08:03:08.683Z,3.70
2022-08-07T08:05:51.134Z,4.00
2022-08-07T08:08:35.185Z,4.00
2022-08-07T08:11:09.334Z,3.80
2022-08-07T08:13:53.424Z,7.50
2022-08-07T08:16:32.190Z,5.20
2022-08-07T08:19:17.393Z,4.00
2022-08-07T08:22:10.731Z,6.10
2022-08-07T08:25:24.709Z,5.50
2022-08-07T08:28:12.618Z,3.00
2022-08-07T08:30:51.172Z,4.60
2022-08-07T08:33:33.101Z,3.70
2022-08-07T08:36:03.524Z,2.40
2022-08-07T08:38:38.618Z,5.80
2022-08-07T08:41:57.064Z,3.50
2022-08-07T08:44:59.065Z,3.70
2022-08-07T08:47:51.787Z,3.20
2022-08-07T08:50:28.583Z,3.60
2022-08-07T08:53:13.929Z,4.40
2022-08-07T08:56:06.309Z,1.60
2022-08-07T08:58:54.680Z,2.40
2022-08-07T09:01:40.047Z,3.10
2022-08-07T09:04:41.687Z,3.30
2022-08-07T09:07:57.968Z,2.60
2022-08-07T09:10:26.880Z,2.80
2022-08-07T09:13:14.678Z,4.50
2022-08-07T09:16:35.038Z,2.40
2022-08-07T09:19:07.148Z,3.80
2022-08-07T09:24:28.291Z,2.30
2022-08-07T09:25:33.022Z,1.90
2022-08-07T09:30:04.645Z,2.30
2022-08-07T09:31:33.610Z,4.10
2022-08-07T09:34:27.245Z,2.90
2022-08-07T09:37:03.463Z,4.30
2022-08-07T09:39:53.739Z,3.80
2022-08-07T09:42:50.203Z,5.00
2022-08-07T09:47:52.328Z,2.80
2022-08-07T09:50:02.070Z,3.10
2022-08-07T09:52:15.381Z,1.90
2022-08-07T09:54:49.749Z,2.40
2022-08-07T09:57:47.098Z,2.80
2022-08-07T10:00:20.813Z,2.30
2022-08-07T10:03:08.135Z,4.00
2022-08-07T10:06:12.275Z,1.60
2022-08-07T10:09:13.467Z,1.50
2022-08-07T10:12:21.883Z,2.30
2022-08-07T10:15:18.523Z,3.20
2022-08-07T10:18:26.570Z,2.70
2022-08-07T10:21:19.837Z,2.00
2022-08-07T10:24:28.523Z,2.20
2022-08-07T10:27:10.533Z,1.90
2022-08-07T10:30:07.391Z,1.70
2022-08-07T10:34:06.308Z,2.10
2022-08-07T10:39:15.639Z,3.40
2022-08-07T10:42:09.711Z,2.50
2022-08-07T10:44:57.289Z,3.20
2022-08-07T10:47:54.488Z,1.80
2022-08-07T10:50:31.841Z,1.80
2022-08-07T10:53:43.934Z,1.60
2022-08-07T10:56:20.699Z,1.50
2022-08-07T10:59:21.407Z,3.60
2022-08-07T11:02:05.064Z,3.90
2022-08-07T11:05:14.309Z,2.40
2022-08-07T11:08:06.545Z,2.30
2022-08-07T11:10:57.880Z,2.30
2022-08-07T11:14:44.284Z,2.80
2022-08-07T11:16:34.355Z,3.70
2022-08-07T11:19:30.198Z,5.70
2022-08-07T11:22:44.025Z,4.20
2022-08-07T11:25:19.834Z,2.90
2022-08-07T11:28:06.936Z,2.90
2022-08-07T11:30:45.957Z,1.80
2022-08-07T11:33:15.100Z,1.80
2022-08-07T11:35:59.626Z,2.70
2022-08-07T11:39:04.329Z,2.40
2022-08-07T11:42:16.858Z,2.20
2022-08-07T11:45:35.435Z,1.90
2022-08-07T11:48:32.272Z,1.80
2022-08-07T11:51:41.270Z,4.00
2022-08-07T11:54:57.574Z,2.20
2022-08-07T11:58:00.718Z,1.80
2022-08-07T12:01:01.704Z,3.60
2022-08-07T12:04:13.084Z,5.00
2022-08-07T12:07:02.426Z,3.90
2022-08-07T12:09:46.600Z,12.40
2022-08-07T12:12:26.232Z,3.80
2022-08-07T12:15:08.209Z,3.20
2022-08-07T12:17:59.468Z,2.40
2022-08-07T12:20:36.510Z,3.10
2022-08-07T12:23:17.931Z,4.70
2022-08-07T12:26:22.076Z,2.70
2022-08-07T12:29:09.503Z,1.80
2022-08-07T12:32:04.034Z,2.00
2022-08-07T12:34:39.130Z,3.80
2022-08-07T12:37:16.898Z,3.60
2022-08-07T12:39:57.433Z,3.90
2022-08-07T12:42:32.109Z,8.70
2022-08-07T12:45:12.280Z,3.60
2022-08-07T12:48:01.283Z,3.80
2022-08-07T12:50:49.581Z,4.80
2022-08-07T12:53:19.027Z,6.50
2022-08-07T12:58:39.939Z,2.00
2022-08-07T13:01:28.006Z,2.40
2022-08-07T13:04:13.634Z,3.10
2022-08-07T13:08:12.459Z,2.20
2022-08-07T13:10:39.788Z,4.40
2022-08-07T13:13:47.293Z,4.90
2022-08-07T13:16:17.871Z,4.40
2022-08-07T13:19:01.255Z,3.80
2022-08-07T13:21:57.449Z,1.90
2022-08-07T13:28:11.704Z,2.80
2022-08-07T13:30:41.288Z,5.70
2022-08-07T13:34:31.913Z,4.70
2022-08-07T13:36:25.734Z,3.80
2022-08-07T13:39:13.065Z,2.60
2022-08-07T13:41:58.469Z,2.30
2022-08-07T13:44:34.685Z,2.10
2022-08-07T13:47:09.487Z,3.10
2022-08-07T13:50:34.376Z,2.20
2022-08-07T13:52:39.624Z,4.20
2022-08-07T13:55:19.808Z,15.20
2022-08-07T13:58:27.679Z,10.30
2022-08-07T14:01:00.348Z,4.10
2022-08-07T14:04:08.131Z,2.70
2022-08-07T14:06:38.769Z,5.00
2022-08-07T14:10:01.360Z,4.60
2022-08-07T14:12:07.438Z,3.50
2022-08-07T14:14:48.300Z,3.70
2022-08-07T14:18:12.299Z,3.50
2022-08-07T14:20:43.229Z,4.00
2022-08-07T14:23:58.798Z,3.70
2022-08-07T14:26:29.914Z,3.60
2022-08-07T14:30:02.673Z,2.40
2022-08-07T14:31:56.367Z,3.10
2022-08-07T14:34:30.215Z,5.30
2022-08-07T14:37:07.988Z,2.20
2022-08-07T14:43:01.153Z,3.60
2022-08-07T14:45:46.617Z,3.20
2022-08-07T14:48:27.281Z,4.30
2022-08-07T14:51:00.256Z,6.70
2022-08-07T14:54:05.487Z,6.10
2022-08-07T14:56:32.110Z,4.90
2022-08-07T14:59:14.092Z,2.30
2022-08-07T15:01:59.054Z,4.90
2022-08-07T15:04:28.938Z,3.60
2022-08-07T15:06:57.912Z,3.00
2022-08-07T15:09:58.868Z,7.40
2022-08-07T15:12:30.404Z,3.20
2022-08-07T15:15:17.353Z,4.10
2022-08-07T15:18:14.368Z,3.60
2022-08-07T15:21:07.921Z,5.90
2022-08-07T15:25:03.999Z,7.00
2022-08-07T15:26:38.463Z,7.20
2022-08-07T15:30:04.384Z,4.30
2022-08-07T15:32:05.103Z,2.40
2022-08-07T15:34:50.447Z,3.30
2022-08-07T15:38:04.740Z,2.60
2022-08-07T15:40:33.995Z,2.80
2022-08-07T15:46:39.183Z,10.70
2022-08-07T15:49:18.253Z,11.50
2022-08-07T15:56:59.973Z,4.40
2022-08-07T15:59:40.069Z,4.30
2022-08-07T16:02:27.200Z,4.40
2022-08-07T16:05:00.317Z,4.50
2022-08-07T16:08:30.579Z,4.30
2022-08-07T16:10:33.648Z,2.70
2022-08-07T16:13:57.720Z,3.60
2022-08-07T16:16:57.295Z,3.00
2022-08-07T16:19:58.892Z,5.50
2022-08-07T16:23:09.724Z,3.30
2022-08-07T16:26:05.276Z,3.10
2022-08-07T16:30:07.683Z,4.40
2022-08-07T16:31:50.709Z,5.30
2022-08-07T16:34:48.282Z,12.80
2022-08-07T16:38:03.893Z,17.30
2022-08-07T16:41:01.690Z,10.80
2022-08-07T16:44:04.127Z,4.40
2022-08-07T16:47:28.863Z,3.60
2022-08-07T16:50:37.076Z,5.20
2022-08-07T16:54:01.469Z,22.00
2022-08-07T16:56:49.993Z,4.50
2022-08-07T16:59:46.097Z,2.80
2022-08-07T17:02:52.222Z,80.70
2022-08-07T17:06:01.476Z,34.10
2022-08-07T17:08:17.719Z,3.40
2022-08-07T17:10:55.699Z,9.20
2022-08-07T17:13:41.519Z,4.00
2022-08-07T17:16:44.886Z,3.30
2022-08-07T17:20:02.512Z,6.40
2022-08-07T17:22:42.445Z,6.80
2022-08-07T17:25:47.523Z,9.10
2022-08-07T17:28:19.342Z,23.90
2022-08-07T17:30:58.277Z,11.30
2022-08-07T17:34:08.846Z,6.80
2022-08-07T17:36:31.069Z,4.80
2022-08-07T17:39:57.867Z,4.40
2022-08-07T17:42:35.924Z,9.30
2022-08-07T17:45:45.432Z,9.70
2022-08-07T17:51:02.741Z,6.30
2022-08-07T17:54:00.795Z,5.40
2022-08-07T17:56:49.404Z,3.80
2022-08-07T17:59:45.617Z,2.80
2022-08-07T18:02:41.300Z,18.30
2022-08-07T18:06:06.421Z,37.30
2022-08-07T18:09:00.538Z,27.90
2022-08-07T18:12:07.416Z,22.50
2022-08-07T18:14:46.436Z,21.20
2022-08-07T18:18:39.858Z,20.10
2022-08-07T18:21:42.259Z,35.80
2022-08-07T18:24:33.678Z,25.30
2022-08-07T18:27:25.700Z,67.10
2022-08-07T18:30:31.972Z,55.80
2022-08-07T18:33:24.174Z,66.50
2022-08-07T18:36:03.600Z,67.60
2022-08-07T18:40:05.436Z,39.70
2022-08-07T18:47:05.866Z,32.60
2022-08-07T18:50:30.968Z,40.10
2022-08-07T18:52:55.157Z,33.10
2022-08-07T18:56:08.637Z,28.30
2022-08-07T18:59:47.609Z,22.70
2022-08-07T19:02:44.915Z,14.10
2022-08-07T19:06:03.466Z,10.90
2022-08-07T19:08:52.156Z,5.50
2022-08-07T19:12:04.166Z,7.20
2022-08-07T19:14:51.086Z,20.40
2022-08-07T19:17:55.831Z,11.50
2022-08-07T19:20:30.237Z,13.30
2022-08-07T19:23:18.910Z,8.10
2022-08-07T19:26:23.262Z,7.90
2022-08-07T19:30:56.703Z,6.80
2022-08-07T19:32:10.249Z,9.80
2022-08-07T19:34:47.673Z,5.10
2022-08-07T19:37:23.994Z,5.40
2022-08-07T19:40:14.414Z,6.70
2022-08-07T19:42:46.815Z,6.40
2022-08-07T19:46:00.974Z,8.00
2022-08-07T19:48:24.417Z,7.60
2022-08-07T19:50:54.556Z,6.60
2022-08-07T19:54:32.248Z,5.50
2022-08-07T19:57:51.733Z,5.00
2022-08-07T19:59:41.310Z,8.50
2022-08-07T20:02:19.552Z,7.20
2022-08-07T20:04:53.110Z,5.60
2022-08-07T20:07:46.055Z,6.40
2022-08-07T20:10:35.218Z,4.50
2022-08-07T20:13:26.958Z,4.90
2022-08-07T20:16:04.214Z,5.60
2022-08-07T20:18:34.731Z,4.70
2022-08-07T20:21:20.938Z,5.00
2022-08-07T20:24:00.508Z,6.90
2022-08-07T20:26:45.256Z,5.40
2022-08-07T20:29:49.267Z,5.90
2022-08-07T20:32:22.710Z,4.80
2022-08-07T20:35:07.609Z,6.60
2022-08-07T20:37:55.301Z,6.90
2022-08-07T20:40:33.780Z,6.20
2022-08-07T20:43:14.576Z,6.00
2022-08-07T20:46:28.666Z,6.00
2022-08-07T20:48:42.210Z,7.50
2022-08-07T20:51:35.850Z,4.20
2022-08-07T20:54:15.309Z,5.70
2022-08-07T20:57:03.302Z,5.50
2022-08-07T21:00:07.010Z,6.40
2022-08-07T21:02:54.584Z,8.70
2022-08-07T21:08:57.748Z,6.50
2022-08-07T21:11:46.081Z,5.40
2022-08-07T21:14:38.589Z,5.40
2022-08-07T21:18:02.309Z,5.30
2022-08-07T21:20:26.870Z,5.00
2022-08-07T21:23:07.611Z,7.00
2022-08-07T21:26:01.354Z,7.50
2022-08-07T21:28:59.683Z,5.50
2022-08-07T21:32:46.721Z,7.70
2022-08-07T21:36:05.022Z,6.80
2022-08-07T21:38:35.203Z,6.00
2022-08-07T21:41:15.490Z,6.20
2022-08-07T21:44:08.518Z,5.80
2022-08-07T21:47:12.271Z,4.90
2022-08-07T23:56:01.065Z,8.20
